Time;durP1;ratioP1;P1;durP2;ratioP2;P2;SDS_P1;SDS_P2;PMS_P1;PMS_P2;Temp;Humidity;BMP_temperature;BMP_pressure;BME280_temperature;BME280_humidity;BME280_pressure;Samples;Min_cycle;Max_cycle;Signal;HPM_P1;HPM_P2
2022/08/15 00:00:13;;;;;;;10.52;6.15;;;26.00;99.90;;;;;;4980546;28;20099;-75
2022/08/15 00:02:44;;;;;;;13.95;6.63;;;26.00;99.90;;;;;;4990059;28;20038;-79
2022/08/15 00:05:12;;;;;;;11.10;5.90;;;26.00;99.90;;;;;;5002872;28;20037;-72
2022/08/15 00:07:38;;;;;;;14.18;6.90;;;26.00;99.90;;;;;;5002407;28;20382;-75
2022/08/15 00:10:05;;;;;;;14.02;6.68;;;25.90;99.90;;;;;;4984875;28;20033;-73
2022/08/15 00:12:32;;;;;;;13.27;5.72;;;26.00;99.90;;;;;;5001721;28;20389;-76
2022/08/15 00:14:57;;;;;;;11.32;6.13;;;26.00;99.90;;;;;;5001787;28;20161;-73
2022/08/15 00:17:24;;;;;;;16.60;6.00;;;25.90;99.90;;;;;;4998915;28;20514;-76
2022/08/15 00:19:49;;;;;;;13.13;6.45;;;25.90;99.90;;;;;;5003199;28;20038;-78
2022/08/15 00:22:17;;;;;;;12.75;6.63;;;25.90;99.90;;;;;;5003998;28;20489;-77
2022/08/15 00:24:46;;;;;;;12.02;6.47;;;25.90;99.90;;;;;;4982020;28;20078;-78
2022/08/15 00:27:12;;;;;;;15.23;6.45;;;25.90;99.90;;;;;;4990107;28;20663;-73
2022/08/15 00:29:38;;;;;;;9.90;5.75;;;25.90;99.90;;;;;;5008099;28;20034;-77
2022/08/15 00:32:11;;;;;;;14.77;6.55;;;25.90;99.90;;;;;;5005773;28;20314;-73
2022/08/15 00:34:37;;;;;;;12.60;7.07;;;25.90;99.90;;;;;;4988865;28;20057;-74
2022/08/15 00:37:05;;;;;;;17.75;6.60;;;25.80;99.90;;;;;;5007580;28;20042;-73
2022/08/15 00:39:32;;;;;;;14.05;6.38;;;25.80;99.90;;;;;;5006675;28;20100;-72
2022/08/15 00:42:00;;;;;;;15.85;6.40;;;25.70;99.90;;;;;;4996469;28;20034;-76
2022/08/15 00:44:34;;;;;;;15.50;7.28;;;25.80;99.90;;;;;;4994238;28;20400;-73
2022/08/15 00:47:07;;;;;;;11.45;6.03;;;25.70;99.90;;;;;;5005836;28;20036;-75
2022/08/15 00:49:35;;;;;;;14.40;6.20;;;25.70;99.90;;;;;;5000899;28;20042;-72
2022/08/15 00:52:15;;;;;;;14.35;6.80;;;25.60;99.90;;;;;;5002644;28;20045;-75
2022/08/15 00:54:47;;;;;;;13.75;7.18;;;25.70;99.90;;;;;;5006055;28;20115;-73
2022/08/15 00:57:29;;;;;;;11.70;6.40;;;25.60;99.90;;;;;;5005737;28;20047;-74
2022/08/15 01:00:00;;;;;;;11.45;6.47;;;25.60;99.90;;;;;;5007531;28;20046;-78
2022/08/15 01:02:31;;;;;;;14.82;7.03;;;25.60;99.90;;;;;;5000993;28;20038;-76
2022/08/15 01:04:58;;;;;;;14.95;7.25;;;25.60;99.90;;;;;;5005728;28;20038;-78
2022/08/15 01:07:24;;;;;;;14.55;7.00;;;25.60;99.90;;;;;;5008553;28;20574;-72
2022/08/15 01:09:52;;;;;;;11.93;6.78;;;25.60;99.90;;;;;;4993332;28;20076;-76
2022/08/15 01:12:22;;;;;;;18.75;7.10;;;25.70;99.90;;;;;;5007102;28;20097;-73
2022/08/15 01:14:58;;;;;;;12.88;6.40;;;25.70;99.90;;;;;;4989091;28;20449;-74
2022/08/15 01:17:27;;;;;;;11.95;6.78;;;25.60;99.90;;;;;;5003486;28;20502;-73
2022/08/15 01:20:00;;;;;;;13.10;6.93;;;25.60;99.90;;;;;;5006649;28;20121;-77
2022/08/15 01:22:53;;;;;;;12.05;6.43;;;25.60;99.90;;;;;;4997933;28;20042;-78
2022/08/15 01:25:46;;;;;;;13.93;6.38;;;25.60;99.90;;;;;;4982586;28;20065;-72
2022/08/15 01:28:17;;;;;;;12.00;6.35;;;25.50;99.90;;;;;;5004930;28;20037;-75
2022/08/15 01:30:51;;;;;;;13.83;5.70;;;25.50;99.90;;;;;;5004324;28;20090;-78
2022/08/15 01:33:18;;;;;;;12.90;5.90;;;25.50;99.90;;;;;;5002472;28;20046;-74
2022/08/15 01:35:46;;;;;;;11.38;5.28;;;25.50;99.90;;;;;;5006879;28;20127;-72
2022/08/15 01:38:19;;;;;;;11.05;6.03;;;25.50;99.90;;;;;;5004466;28;20065;-72
2022/08/15 01:41:14;;;;;;;10.23;5.00;;;25.50;99.90;;;;;;5003587;28;20101;-73
2022/08/15 01:43:50;;;;;;;10.90;4.82;;;25.50;99.90;;;;;;5002543;28;20179;-78
2022/08/15 01:46:20;;;;;;;15.65;5.25;;;25.50;99.90;;;;;;4983047;28;20117;-77
2022/08/15 01:48:51;;;;;;;15.25;5.55;;;25.50;99.90;;;;;;4994104;28;20381;-76
2022/08/15 01:51:18;;;;;;;11.48;5.25;;;25.50;99.90;;;;;;5001828;28;20033;-76
2022/08/15 01:53:56;;;;;;;9.18;4.40;;;25.50;99.90;;;;;;5002865;28;20144;-72
2022/08/15 01:56:30;;;;;;;8.32;4.50;;;25.50;99.90;;;;;;4989653;28;21071;-73
2022/08/15 01:58:58;;;;;;;10.57;4.82;;;25.50;99.90;;;;;;5000513;28;20110;-72
2022/08/15 02:02:02;;;;;;;11.63;4.82;;;25.50;99.90;;;;;;5001535;28;20030;-72
2022/08/15 02:04:32;;;;;;;7.95;4.57;;;25.50;99.90;;;;;;4994048;28;20034;-75
2022/08/15 02:07:03;;;;;;;14.68;4.25;;;25.50;99.90;;;;;;5003075;28;20042;-73
2022/08/15 02:09:29;;;;;;;9.48;5.15;;;25.50;99.90;;;;;;5002364;28;20038;-76
2022/08/15 02:11:57;;;;;;;7.90;4.22;;;25.40;99.90;;;;;;5007067;28;20052;-77
2022/08/15 02:14:23;;;;;;;10.10;4.45;;;25.40;99.90;;;;;;5001072;28;20034;-78
2022/08/15 02:16:49;;;;;;;11.25;4.75;;;25.40;99.90;;;;;;5000807;28;20045;-78
2022/08/15 02:19:17;;;;;;;11.48;4.50;;;25.50;99.90;;;;;;4993388;28;20038;-74
2022/08/15 02:21:45;;;;;;;8.65;4.40;;;25.50;99.90;;;;;;4984096;28;20041;-77
2022/08/15 02:24:17;;;;;;;7.85;4.75;;;25.40;99.90;;;;;;4955785;28;1266014;-75
2022/08/15 02:26:43;;;;;;;11.13;4.93;;;25.40;99.90;;;;;;4985021;28;20543;-77
2022/08/15 02:29:09;;;;;;;12.10;4.72;;;25.50;99.90;;;;;;4987539;28;20031;-72
2022/08/15 02:31:39;;;;;;;7.20;4.38;;;25.50;99.90;;;;;;4999074;28;20038;-76
2022/08/15 02:34:06;;;;;;;11.35;4.47;;;25.40;99.90;;;;;;4985489;28;20068;-73
2022/08/15 02:36:37;;;;;;;10.45;4.07;;;25.40;99.90;;;;;;5003372;28;20041;-73
2022/08/15 02:39:08;;;;;;;8.33;4.17;;;25.40;99.90;;;;;;5001082;28;20022;-78
2022/08/15 02:41:37;;;;;;;9.27;4.30;;;25.40;99.90;;;;;;4981931;28;20494;-78
2022/08/15 02:44:05;;;;;;;8.27;3.83;;;25.40;99.90;;;;;;5000493;28;20027;-76
2022/08/15 02:46:32;;;;;;;8.57;4.15;;;25.30;99.90;;;;;;4985928;28;20031;-76
2022/08/15 02:49:01;;;;;;;7.75;4.40;;;25.40;99.90;;;;;;5003262;28;20071;-72
2022/08/15 02:51:28;;;;;;;7.90;3.70;;;25.30;99.90;;;;;;4998222;28;20058;-76
2022/08/15 02:53:56;;;;;;;8.02;3.97;;;25.30;99.90;;;;;;5002328;28;20038;-76
2022/08/15 02:56:27;;;;;;;8.38;3.92;;;25.20;99.90;;;;;;4998278;28;21497;-73
2022/08/15 02:58:53;;;;;;;9.52;4.05;;;25.30;99.90;;;;;;5000561;28;20126;-78
2022/08/15 03:01:21;;;;;;;8.27;4.25;;;25.20;99.90;;;;;;4998838;28;20117;-77
2022/08/15 03:03:51;;;;;;;7.15;4.30;;;25.30;99.90;;;;;;5005200;28;20042;-78
2022/08/15 03:06:25;;;;;;;8.43;4.75;;;25.30;99.90;;;;;;4987054;28;20512;-79
2022/08/15 03:08:53;;;;;;;6.65;4.10;;;25.30;99.90;;;;;;5002893;28;20038;-73
2022/08/15 03:11:20;;;;;;;9.20;4.15;;;25.30;99.90;;;;;;4999815;28;20088;-76
2022/08/15 03:13:46;;;;;;;10.02;3.92;;;25.30;99.90;;;;;;5002564;28;20061;-75
2022/08/15 03:16:15;;;;;;;7.13;3.67;;;25.30;99.90;;;;;;5001216;28;20576;-73
2022/08/15 03:18:42;;;;;;;11.23;3.80;;;25.30;99.90;;;;;;5001765;28;20048;-74
2022/08/15 03:21:11;;;;;;;9.18;3.80;;;25.30;99.90;;;;;;5001619;28;20041;-76
2022/08/15 03:23:38;;;;;;;8.20;3.90;;;25.20;99.90;;;;;;5000885;28;20516;-78
2022/08/15 03:26:04;;;;;;;7.95;4.35;;;25.20;99.90;;;;;;4985046;28;20065;-72
2022/08/15 03:28:32;;;;;;;8.57;4.28;;;25.20;99.90;;;;;;5002378;28;20030;-74
2022/08/15 03:31:02;;;;;;;8.32;3.67;;;25.20;99.90;;;;;;4984357;28;20125;-73
2022/08/15 03:33:29;;;;;;;7.60;3.75;;;25.20;99.90;;;;;;4988102;28;20469;-72
2022/08/15 03:35:56;;;;;;;7.78;3.95;;;25.20;99.90;;;;;;5002294;28;20042;-75
2022/08/15 03:38:22;;;;;;;7.50;3.65;;;25.20;99.90;;;;;;4978344;28;20039;-73
2022/08/15 03:40:50;;;;;;;7.47;4.00;;;25.20;99.90;;;;;;4991873;28;20141;-73
2022/08/15 03:43:20;;;;;;;10.45;4.13;;;25.20;99.90;;;;;;4984123;28;20077;-73
2022/08/15 03:45:57;;;;;;;11.00;4.03;;;25.10;99.90;;;;;;4998625;28;20033;-73
2022/08/15 03:48:29;;;;;;;8.95;3.88;;;25.10;99.90;;;;;;4985575;28;20133;-72
2022/08/15 03:50:56;;;;;;;8.43;4.05;;;25.00;99.90;;;;;;5002389;28;20525;-74
2022/08/15 03:53:22;;;;;;;9.63;4.22;;;25.00;99.90;;;;;;5000946;28;20092;-74
2022/08/15 03:55:48;;;;;;;8.35;4.00;;;25.10;99.90;;;;;;4998832;28;20038;-73
2022/08/15 03:58:14;;;;;;;8.27;4.20;;;25.00;99.90;;;;;;4998265;28;20034;-76
2022/08/15 04:00:46;;;;;;;10.73;4.00;;;25.10;99.90;;;;;;4995077;28;20030;-76
2022/08/15 04:03:14;;;;;;;9.55;4.07;;;25.10;99.90;;;;;;4981719;28;20493;-73
2022/08/15 04:05:42;;;;;;;7.82;4.20;;;25.00;99.90;;;;;;4998459;28;20030;-75
2022/08/15 04:08:10;;;;;;;9.77;3.80;;;25.10;99.90;;;;;;4998001;28;20101;-72
2022/08/15 04:10:37;;;;;;;8.13;3.85;;;25.10;99.90;;;;;;5004874;28;20060;-76
2022/08/15 04:13:06;;;;;;;7.57;4.15;;;25.00;99.90;;;;;;4988884;28;20026;-74
2022/08/15 04:15:33;;;;;;;8.38;3.72;;;25.00;99.90;;;;;;4998239;28;20452;-74
2022/08/15 04:18:00;;;;;;;7.25;3.67;;;24.90;99.90;;;;;;5001548;28;20039;-77
2022/08/15 04:20:28;;;;;;;7.72;3.90;;;24.90;99.90;;;;;;4981581;28;20088;-76
2022/08/15 04:22:55;;;;;;;8.93;3.70;;;24.90;99.90;;;;;;5004063;28;20065;-75
2022/08/15 04:25:22;;;;;;;6.90;4.00;;;24.90;99.90;;;;;;4978825;28;20125;-74
2022/08/15 04:27:50;;;;;;;11.68;4.25;;;24.80;99.90;;;;;;4990591;28;20073;-78
2022/08/15 04:30:16;;;;;;;6.88;4.03;;;24.90;99.90;;;;;;4982880;28;20108;-77
2022/08/15 04:32:42;;;;;;;9.18;4.35;;;24.80;99.90;;;;;;5004444;28;20546;-77
2022/08/15 04:35:11;;;;;;;7.43;3.70;;;24.80;99.90;;;;;;5000105;28;20041;-74
2022/08/15 04:37:39;;;;;;;9.32;4.22;;;24.70;99.90;;;;;;4997589;28;20026;-76
2022/08/15 04:40:07;;;;;;;7.70;4.10;;;24.70;99.90;;;;;;4981244;28;20043;-79
2022/08/15 04:42:43;;;;;;;10.90;4.45;;;24.70;99.90;;;;;;4978965;28;20038;-72
2022/08/15 04:45:09;;;;;;;7.20;3.70;;;24.70;99.90;;;;;;4989919;28;20042;-75
2022/08/15 04:47:37;;;;;;;12.82;4.35;;;24.70;99.90;;;;;;4981186;28;20043;-71
2022/08/15 04:50:03;;;;;;;11.52;4.10;;;24.70;99.90;;;;;;4996027;28;20034;-77
2022/08/15 04:52:29;;;;;;;11.85;4.55;;;24.70;99.90;;;;;;5001171;28;20644;-73
2022/08/15 04:54:58;;;;;;;9.35;4.00;;;24.70;99.90;;;;;;5000493;28;20038;-75
2022/08/15 04:57:24;;;;;;;8.93;4.13;;;24.70;99.90;;;;;;5003418;28;20049;-72
2022/08/15 04:59:50;;;;;;;9.55;4.38;;;24.70;99.90;;;;;;4997185;28;20073;-78
2022/08/15 05:02:24;;;;;;;7.97;3.83;;;24.70;99.90;;;;;;5001041;28;20400;-76
2022/08/15 05:04:50;;;;;;;10.18;3.97;;;24.70;99.90;;;;;;4992292;28;20042;-76
2022/08/15 05:07:16;;;;;;;8.60;4.45;;;24.70;99.90;;;;;;4986579;28;20678;-73
2022/08/15 05:09:43;;;;;;;9.05;3.92;;;24.70;99.90;;;;;;4983200;28;20109;-76
2022/08/15 05:12:10;;;;;;;10.27;5.03;;;24.70;99.90;;;;;;4984085;28;20034;-74
2022/08/15 05:14:36;;;;;;;9.93;4.45;;;24.70;99.90;;;;;;4983532;28;20048;-76
2022/08/15 05:17:02;;;;;;;9.70;4.38;;;24.70;99.90;;;;;;5003321;28;20026;-78
2022/08/15 05:19:28;;;;;;;11.13;4.38;;;24.80;99.90;;;;;;5004949;28;20042;-72
2022/08/15 05:21:54;;;;;;;7.82;4.30;;;24.70;99.90;;;;;;5002872;28;20524;-74
2022/08/15 05:24:20;;;;;;;9.73;4.28;;;24.80;99.90;;;;;;5003783;28;20741;-79
2022/08/15 05:26:46;;;;;;;8.52;4.70;;;24.70;99.90;;;;;;4986275;28;20141;-78
2022/08/15 05:29:11;;;;;;;7.43;4.53;;;24.80;99.90;;;;;;5004081;28;20057;-75
2022/08/15 05:31:37;;;;;;;8.30;4.43;;;24.80;99.90;;;;;;5003051;28;20386;-72
2022/08/15 05:34:03;;;;;;;10.32;4.55;;;24.80;99.90;;;;;;4999763;28;20440;-76
2022/08/15 05:36:33;;;;;;;13.13;4.15;;;24.80;99.90;;;;;;4992226;28;20056;-76
2022/08/15 05:39:18;;;;;;;8.65;4.40;;;24.80;99.90;;;;;;4987309;28;20038;-73
2022/08/15 05:42:04;;;;;;;6.90;3.60;;;24.90;99.90;;;;;;4987052;28;20549;-76
2022/08/15 05:44:40;;;;;;;7.47;3.83;;;25.00;99.90;;;;;;4982230;28;20148;-72
2022/08/15 05:47:16;;;;;;;9.05;4.40;;;25.00;99.90;;;;;;4987310;28;20809;-76
2022/08/15 05:49:51;;;;;;;8.93;4.45;;;25.10;99.90;;;;;;4984594;28;20031;-77
2022/08/15 05:52:26;;;;;;;7.00;3.85;;;25.20;99.90;;;;;;4984078;28;20027;-78
2022/08/15 05:55:08;;;;;;;8.00;4.20;;;25.30;99.90;;;;;;5001649;28;20057;-73
2022/08/15 05:57:46;;;;;;;9.57;3.60;;;25.40;99.90;;;;;;5001126;28;20026;-76
2022/08/15 06:00:15;;;;;;;6.57;3.83;;;25.50;99.90;;;;;;5000883;28;20038;-75
2022/08/15 06:02:49;;;;;;;7.45;3.63;;;25.50;99.90;;;;;;4985722;28;20038;-77
2022/08/15 06:05:27;;;;;;;8.00;4.03;;;25.60;99.90;;;;;;5004734;28;20039;-73
2022/08/15 06:07:57;;;;;;;8.90;4.10;;;25.60;99.90;;;;;;5002830;28;20069;-73
2022/08/15 06:10:51;;;;;;;8.35;3.83;;;25.70;99.90;;;;;;5005493;28;20088;-74
2022/08/15 06:13:30;;;;;;;7.75;4.00;;;25.70;99.90;;;;;;4999126;28;20038;-71
2022/08/15 06:16:06;;;;;;;9.88;3.78;;;25.80;99.90;;;;;;4982718;28;20034;-72
2022/08/15 06:18:36;;;;;;;6.70;3.50;;;25.90;99.90;;;;;;4999954;28;20485;-77
2022/08/15 06:21:26;;;;;;;11.13;3.78;;;25.90;99.90;;;;;;5000775;28;20065;-73
2022/08/15 06:24:19;;;;;;;8.40;3.88;;;26.00;99.90;;;;;;5003601;28;20116;-76
2022/08/15 06:26:57;;;;;;;6.60;3.78;;;26.00;99.90;;;;;;4990377;28;20125;-76
2022/08/15 06:29:32;;;;;;;7.55;3.63;;;26.10;99.90;;;;;;5000227;28;20034;-78
2022/08/15 06:32:04;;;;;;;7.43;4.00;;;26.10;99.90;;;;;;5003092;28;20038;-72
2022/08/15 06:34:57;;;;;;;9.52;4.03;;;26.20;99.90;;;;;;4991488;28;20034;-75
2022/08/15 06:37:47;;;;;;;9.02;4.20;;;26.30;99.90;;;;;;5003072;28;20026;-72
2022/08/15 06:40:33;;;;;;;10.77;4.40;;;26.30;99.90;;;;;;5001457;28;20038;-73
2022/08/15 06:42:59;;;;;;;10.38;4.40;;;26.40;99.90;;;;;;5000440;28;20046;-79
2022/08/15 06:45:35;;;;;;;8.45;4.03;;;26.40;99.90;;;;;;5002007;28;21112;-74
2022/08/15 06:48:10;;;;;;;9.70;4.07;;;26.50;99.90;;;;;;4987345;28;20041;-78
2022/08/15 06:50:47;;;;;;;7.18;4.22;;;26.50;99.90;;;;;;4999464;28;20030;-74
2022/08/15 06:53:28;;;;;;;8.50;4.40;;;26.60;99.90;;;;;;4990456;28;20038;-78
2022/08/15 06:56:21;;;;;;;10.02;4.55;;;26.60;99.90;;;;;;4999702;28;20040;-77
2022/08/15 06:59:25;;;;;;;11.07;4.22;;;26.70;99.90;;;;;;4999514;28;20034;-78
2022/08/15 07:02:27;;;;;;;9.23;4.25;;;26.80;99.90;;;;;;5002426;28;20038;-78
2022/08/15 07:05:05;;;;;;;12.70;4.83;;;26.80;99.90;;;;;;4999807;28;20109;-74
2022/08/15 07:07:43;;;;;;;8.85;3.80;;;26.90;99.90;;;;;;4983263;28;20034;-72
2022/08/15 07:10:32;;;;;;;10.40;4.72;;;27.00;99.90;;;;;;4988802;28;20090;-75
2022/08/15 07:13:15;;;;;;;9.30;4.20;;;27.00;99.90;;;;;;5002616;28;20115;-74
2022/08/15 07:15:58;;;;;;;8.85;4.13;;;27.10;99.90;;;;;;5003565;28;20034;-78
2022/08/15 07:18:35;;;;;;;7.75;4.03;;;27.20;99.90;;;;;;4981822;28;20030;-76
2022/08/15 07:21:08;;;;;;;11.85;4.68;;;27.20;99.90;;;;;;5000106;28;20023;-78
2022/08/15 07:23:35;;;;;;;8.70;5.10;;;27.30;99.90;;;;;;4999912;28;20757;-72
2022/08/15 07:26:11;;;;;;;9.25;4.40;;;27.20;99.90;;;;;;5003902;28;20068;-78
2022/08/15 07:28:43;;;;;;;7.68;4.43;;;27.30;99.90;;;;;;5001099;28;20059;-71
2022/08/15 07:31:19;;;;;;;8.37;4.30;;;27.30;99.90;;;;;;4986936;28;20033;-77
2022/08/15 07:33:49;;;;;;;9.55;4.65;;;27.40;99.90;;;;;;5003346;28;20125;-77
2022/08/15 07:36:26;;;;;;;10.93;5.00;;;27.40;99.90;;;;;;4986407;28;20960;-78
2022/08/15 07:38:54;;;;;;;9.75;4.15;;;27.40;99.90;;;;;;5001675;28;20030;-73
2022/08/15 07:41:30;;;;;;;9.30;4.28;;;27.60;99.90;;;;;;5005513;28;20096;-75
2022/08/15 07:44:31;;;;;;;11.18;4.43;;;27.60;99.90;;;;;;5004853;28;20043;-77
2022/08/15 07:47:01;;;;;;;8.27;3.97;;;27.70;99.90;;;;;;4982741;28;20038;-80
2022/08/15 07:49:32;;;;;;;11.10;4.32;;;27.80;99.90;;;;;;5004200;28;20109;-78
2022/08/15 07:51:59;;;;;;;7.65;3.83;;;27.80;99.90;;;;;;4992837;28;20034;-73
2022/08/15 07:54:46;;;;;;;9.02;4.00;;;27.90;99.90;;;;;;5000499;28;20038;-78
2022/08/15 07:57:35;;;;;;;8.68;4.40;;;28.00;99.90;;;;;;4989368;28;20125;-79
2022/08/15 08:00:16;;;;;;;12.20;4.68;;;28.10;99.90;;;;;;5001821;28;20089;-77
2022/08/15 08:02:48;;;;;;;10.75;4.60;;;28.20;99.90;;;;;;4999705;28;20057;-79
2022/08/15 08:05:14;;;;;;;9.02;3.95;;;28.20;99.90;;;;;;5001171;28;20030;-74
2022/08/15 08:07:44;;;;;;;9.85;3.97;;;28.30;99.90;;;;;;5005468;28;20037;-79
2022/08/15 08:10:24;;;;;;;7.80;4.10;;;28.30;99.90;;;;;;4984609;28;20088;-79
2022/08/15 08:13:22;;;;;;;9.55;4.43;;;28.30;99.90;;;;;;4989435;28;20041;-72
2022/08/15 08:16:15;;;;;;;6.18;3.88;;;28.40;99.90;;;;;;4967726;28;20510;-78
2022/08/15 08:18:41;;;;;;;10.48;3.58;;;28.60;99.90;;;;;;5000646;28;20042;-76
2022/08/15 08:21:13;;;;;;;12.48;4.25;;;28.60;99.90;;;;;;5003838;28;20030;-79
2022/08/15 08:23:49;;;;;;;8.13;3.97;;;28.60;99.90;;;;;;5000059;28;20042;-72
2022/08/15 08:27:02;;;;;;;8.82;3.42;;;28.70;99.90;;;;;;5000801;28;20074;-79
2022/08/15 08:29:39;;;;;;;12.13;3.95;;;28.90;99.90;;;;;;4947856;28;20141;-79
2022/08/15 08:32:24;;;;;;;7.28;3.80;;;29.10;99.90;;;;;;4991748;28;20030;-77
2022/08/15 08:35:03;;;;;;;6.85;3.70;;;29.20;99.90;;;;;;4999836;28;20030;-77
2022/08/15 08:37:32;;;;;;;9.48;3.95;;;29.10;99.90;;;;;;4982844;28;20022;-76
2022/08/15 08:43:10;;;;;;;9.30;3.83;;;31.60;98.00;;;;;;5007473;28;20068;-78
2022/08/15 08:45:57;;;;;;;6.95;3.40;;;33.00;96.30;;;;;;5005022;28;20030;-73
2022/08/15 08:48:38;;;;;;;7.05;4.00;;;33.80;94.40;;;;;;5007499;28;20049;-76
2022/08/15 08:51:38;;;;;;;8.98;3.60;;;33.80;94.20;;;;;;5007467;28;20138;-79
2022/08/15 08:54:22;;;;;;;6.65;3.00;;;34.20;93.60;;;;;;5003674;28;20034;-79
2022/08/15 08:56:53;;;;;;;6.75;3.28;;;33.70;93.50;;;;;;5007905;28;20121;-79
2022/08/15 08:59:29;;;;;;;5.68;2.90;;;32.80;93.90;;;;;;5001200;28;20030;-76
2022/08/15 09:02:27;;;;;;;5.13;2.95;;;32.70;94.20;;;;;;5001509;28;20066;-79
2022/08/15 09:05:01;;;;;;;7.95;3.47;;;33.70;93.40;;;;;;5004118;28;20041;-74
2022/08/15 09:07:34;;;;;;;6.90;3.00;;;33.70;93.20;;;;;;4988036;28;20560;-77
2022/08/15 09:10:05;;;;;;;8.52;3.13;;;34.40;92.90;;;;;;5006094;28;20470;-76
2022/08/15 09:15:29;;;;;;;5.00;3.22;;;34.50;93.20;;;;;;5004090;28;20566;-80
2022/08/15 09:18:05;;;;;;;5.47;3.25;;;34.80;93.90;;;;;;5008353;28;20041;-76
2022/08/15 09:20:35;;;;;;;5.28;3.72;;;34.70;94.00;;;;;;4993702;28;20119;-73
2022/08/15 09:23:03;;;;;;;6.38;3.13;;;34.60;93.90;;;;;;5008100;28;20045;-74
2022/08/15 09:25:33;;;;;;;6.85;3.20;;;35.30;93.70;;;;;;5005165;28;20038;-74
2022/08/15 09:28:32;;;;;;;7.15;3.28;;;35.30;93.90;;;;;;5006730;28;20041;-72
2022/08/15 09:31:24;;;;;;;7.55;3.67;;;35.50;93.80;;;;;;5001752;28;20397;-73
2022/08/15 09:34:27;;;;;;;8.27;3.50;;;34.90;94.20;;;;;;5001853;28;20038;-74
2022/08/15 09:37:00;;;;;;;5.88;3.97;;;34.50;95.50;;;;;;5001889;28;20065;-80
2022/08/15 09:39:42;;;;;;;7.32;3.75;;;35.70;94.40;;;;;;4990763;28;20397;-79
2022/08/15 09:42:20;;;;;;;7.88;4.00;;;36.30;94.00;;;;;;5003439;28;20033;-76
2022/08/15 09:45:15;;;;;;;7.47;3.88;;;36.50;94.00;;;;;;5003490;28;20026;-78
2022/08/15 09:48:00;;;;;;;7.63;3.65;;;36.60;93.40;;;;;;5006102;28;20022;-72
2022/08/15 09:51:13;;;;;;;6.40;3.28;;;36.70;92.80;;;;;;5001005;28;20026;-77
2022/08/15 09:53:47;;;;;;;6.82;3.47;;;37.20;92.00;;;;;;4979272;28;20022;-79
2022/08/15 09:56:21;;;;;;;6.32;3.15;;;36.40;92.20;;;;;;5002632;28;20030;-73
2022/08/15 09:58:55;;;;;;;6.70;3.25;;;36.20;92.20;;;;;;4991934;28;20377;-74
2022/08/15 10:01:24;;;;;;;5.03;2.80;;;36.30;92.20;;;;;;5005705;28;20690;-72
2022/08/15 10:04:05;;;;;;;7.65;3.00;;;36.30;92.00;;;;;;4983802;28;20053;-76
2022/08/15 10:06:55;;;;;;;;;;;36.10;92.00;;;;;;5002458;28;20038;-74
2022/08/15 10:09:31;;;;;;;6.85;2.90;;;36.30;91.80;;;;;;5005533;28;19917;-80
2022/08/15 10:12:20;;;;;;;5.50;2.40;;;36.90;90.90;;;;;;5003538;28;20030;-76
2022/08/15 10:15:24;;;;;;;6.90;2.97;;;37.00;90.80;;;;;;4998265;28;20062;-77
2022/08/15 10:17:51;;;;;;;5.88;2.70;;;36.50;91.20;;;;;;4982763;28;20082;-77
2022/08/15 10:20:16;;;;;;;5.53;2.75;;;36.70;91.00;;;;;;5005895;28;20057;-72
2022/08/15 10:23:07;;;;;;;5.93;2.92;;;37.10;90.70;;;;;;4983957;28;20060;-74
2022/08/15 10:25:40;;;;;;;6.30;2.30;;;36.80;91.00;;;;;;5000765;28;20045;-73
2022/08/15 10:28:11;;;;;;;7.93;2.65;;;36.30;91.20;;;;;;4998570;28;20050;-78
2022/08/15 10:30:46;;;;;;;5.85;2.17;;;35.50;91.20;;;;;;5000773;28;20030;-73
2022/08/15 10:33:29;;;;;;;6.72;2.45;;;34.90;90.70;;;;;;4987192;28;20853;-76
2022/08/15 10:36:13;;;;;;;4.32;2.10;;;33.80;91.90;;;;;;5000515;28;20068;-76
2022/08/15 10:38:45;;;;;;;6.43;2.47;;;33.80;91.70;;;;;;4997773;28;20474;-75
2022/08/15 10:41:31;;;;;;;6.75;2.65;;;34.60;91.50;;;;;;5001227;28;20038;-76
2022/08/15 10:44:11;;;;;;;5.85;2.70;;;34.90;91.80;;;;;;4981111;28;20061;-72
2022/08/15 10:46:58;;;;;;;6.20;2.85;;;34.60;91.70;;;;;;4992342;28;20030;-77
2022/08/15 10:49:38;;;;;;;6.68;3.03;;;34.80;91.30;;;;;;5002460;28;20116;-77
2022/08/15 10:52:27;;;;;;;5.15;2.80;;;34.90;91.80;;;;;;4997934;28;20057;-73
2022/08/15 10:55:07;;;;;;;5.78;2.90;;;34.60;91.80;;;;;;4991227;28;20040;-76
2022/08/15 10:57:47;;;;;;;4.78;3.05;;;34.30;92.80;;;;;;5000222;28;20030;-74
2022/08/15 11:00:51;;;;;;;7.82;3.03;;;33.80;93.70;;;;;;5002683;28;20042;-76
2022/08/15 11:03:29;;;;;;;6.65;2.60;;;33.80;93.70;;;;;;4987423;28;20053;-77
2022/08/15 11:06:02;;;;;;;7.00;2.78;;;34.60;92.90;;;;;;5000367;28;20365;-73
2022/08/15 11:08:28;;;;;;;8.13;3.65;;;34.50;94.00;;;;;;5002353;28;20449;-73
2022/08/15 11:11:05;;;;;;;5.50;3.40;;;34.70;94.30;;;;;;5003698;28;20043;-76
2022/08/15 11:13:32;;;;;;;6.07;2.97;;;34.10;94.50;;;;;;5001776;28;20402;-73
2022/08/15 11:16:14;;;;;;;8.73;3.33;;;34.40;94.60;;;;;;5003548;28;20072;-77
2022/08/15 11:18:55;;;;;;;6.05;3.30;;;34.60;94.40;;;;;;4987789;28;20062;-76
2022/08/15 11:21:36;;;;;;;5.85;3.40;;;35.30;94.10;;;;;;4998559;28;20393;-77
2022/08/15 11:24:07;;;;;;;8.07;3.00;;;35.30;94.10;;;;;;5000597;28;20073;-72
2022/08/15 11:26:40;;;;;;;7.75;3.65;;;35.20;93.80;;;;;;5004710;28;20034;-76
2022/08/15 11:29:18;;;;;;;8.65;3.42;;;35.10;94.00;;;;;;4999169;28;20345;-72
2022/08/15 11:31:56;;;;;;;12.73;3.13;;;35.30;93.90;;;;;;4999471;28;20191;-77
2022/08/15 11:34:32;;;;;;;6.70;3.00;;;35.70;93.70;;;;;;4988483;28;20117;-74
2022/08/15 11:37:20;;;;;;;7.55;3.40;;;35.60;93.30;;;;;;4997547;28;20042;-77
2022/08/15 11:39:57;;;;;;;10.38;3.28;;;34.90;94.00;;;;;;4997900;28;20090;-74
2022/08/15 11:42:24;;;;;;;8.18;3.42;;;35.20;93.40;;;;;;4983726;28;20077;-74
2022/08/15 11:45:05;;;;;;;7.30;2.95;;;35.40;93.60;;;;;;5000818;28;20365;-75
2022/08/15 11:47:34;;;;;;;5.82;2.72;;;35.50;93.40;;;;;;4997717;28;20401;-73
2022/08/15 11:50:04;;;;;;;8.88;2.97;;;36.20;92.50;;;;;;4998596;28;20071;-74
2022/08/15 11:52:37;;;;;;;6.10;2.83;;;36.20;92.40;;;;;;4987577;28;20408;-73
2022/08/15 11:55:14;;;;;;;8.05;2.80;;;35.80;92.20;;;;;;5000061;28;20474;-73
2022/08/15 11:57:47;;;;;;;5.03;2.90;;;35.20;93.20;;;;;;4982133;28;20022;-77
2022/08/15 12:00:24;;;;;;;6.55;2.75;;;35.00;93.10;;;;;;4987490;28;20499;-77
2022/08/15 12:02:50;;;;;;;5.75;3.22;;;35.00;93.20;;;;;;4987120;28;20125;-77
2022/08/15 12:05:27;;;;;;;8.50;2.67;;;35.00;93.50;;;;;;4983331;28;20030;-77
2022/08/15 12:07:57;;;;;;;4.38;2.80;;;35.00;93.50;;;;;;5000963;28;20049;-77
2022/08/15 12:10:39;;;;;;;5.60;2.72;;;35.90;92.70;;;;;;4999101;28;20188;-75
2022/08/15 12:13:07;;;;;;;6.45;2.92;;;36.00;92.90;;;;;;4997323;28;20041;-75
2022/08/15 12:15:33;;;;;;;9.88;3.05;;;35.60;93.00;;;;;;5004531;28;20038;-73
2022/08/15 12:18:04;;;;;;;5.53;2.90;;;36.00;93.00;;;;;;4992587;28;20107;-74
2022/08/15 12:20:59;;;;;;;4.85;2.70;;;36.10;92.70;;;;;;5001938;28;20068;-78
2022/08/15 12:23:36;;;;;;;5.80;2.60;;;35.90;92.00;;;;;;5004428;28;20065;-75
2022/08/15 12:26:06;;;;;;;5.38;2.90;;;36.20;92.20;;;;;;4999472;28;20052;-76
2022/08/15 12:28:35;;;;;;;7.22;2.80;;;36.20;92.40;;;;;;5007132;28;20501;-76
2022/08/15 12:31:27;;;;;;;6.63;2.90;;;36.80;92.00;;;;;;5001867;28;20119;-72
2022/08/15 12:34:09;;;;;;;6.22;2.92;;;36.60;92.40;;;;;;4990574;28;20036;-72
2022/08/15 12:36:37;;;;;;;6.50;2.60;;;36.00;92.50;;;;;;5003866;28;20040;-77
2022/08/15 12:39:04;;;;;;;7.57;2.60;;;36.90;92.30;;;;;;4986173;28;20034;-73
2022/08/15 12:41:30;;;;;;;10.00;3.08;;;36.80;91.90;;;;;;5003749;28;20039;-74
2022/08/15 12:43:56;;;;;;;7.20;3.00;;;36.60;92.80;;;;;;5002464;28;20477;-77
2022/08/15 12:46:22;;;;;;;9.02;2.78;;;36.50;93.00;;;;;;4986608;28;20046;-74
2022/08/15 12:48:49;;;;;;;7.88;2.92;;;37.10;92.70;;;;;;4992403;28;20556;-72
2022/08/15 12:51:16;;;;;;;6.45;2.90;;;37.20;92.20;;;;;;5001363;28;20048;-77
2022/08/15 12:53:43;;;;;;;9.30;2.80;;;37.30;92.20;;;;;;5002991;28;20037;-74
2022/08/15 12:56:10;;;;;;;9.25;2.88;;;37.40;92.10;;;;;;4999812;28;20033;-78
2022/08/15 12:58:37;;;;;;;4.90;2.60;;;37.40;91.80;;;;;;4986887;28;20037;-72
2022/08/15 13:01:08;;;;;;;5.43;2.70;;;37.40;91.90;;;;;;5001858;28;20081;-79
2022/08/15 13:03:34;;;;;;;7.28;2.60;;;37.50;91.70;;;;;;4988563;28;20045;-74
2022/08/15 13:06:31;;;;;;;7.85;3.17;;;37.10;92.20;;;;;;4993269;28;20355;-75
2022/08/15 13:08:57;;;;;;;7.25;2.78;;;37.70;92.10;;;;;;4986826;28;20064;-77
2022/08/15 13:11:25;;;;;;;7.57;3.13;;;37.70;92.20;;;;;;4989504;28;20034;-72
2022/08/15 13:13:51;;;;;;;9.57;2.85;;;38.00;92.40;;;;;;5001248;28;20117;-78
2022/08/15 13:16:17;;;;;;;5.38;2.50;;;37.20;92.40;;;;;;5005143;28;20641;-72
2022/08/15 13:18:44;;;;;;;7.72;3.00;;;36.70;92.60;;;;;;5000839;28;20588;-76
2022/08/15 13:23:54;;;;;;;5.43;2.58;;;37.00;92.90;;;;;;5005865;28;20062;-72
2022/08/15 13:26:22;;;;;;;6.85;2.75;;;36.90;93.30;;;;;;4969644;28;20042;-76